Flight Track Log - Related Links

Times and Time Zones

All times are in EDT time to prevent confusion due to time zone crossing. See the UAL4234 flight status page for this flight to view local times or setup timezone preferences in your user account.

Time Position Orientation Groundspeed Altitude Reporting Facility
EDT Latitude Longitude Course Direction KTS MPH feet Rate Location/Type
Thu 01:04:42 PM 41.9333 -87.8667 77° East 205 236 2,400  Level Chicago TRACON
Thu 01:05:48 PM 41.9500 -87.7833 75° East 210 242 4,800 1,533 Climbing Chicago TRACON
Thu 01:07:46 PM 41.9756 -87.6008 79° East 251 289 7,100 1,367 Climbing Chicago Center
Thu 01:08:00 PM 42.2036 -87.2559 66° East  Level FlightAware Approximate
Thu 01:08:48 PM 42.0169 -87.5189 56° Northeast 268 308 8,900  Level Chicago Center
Thu 01:09:00 PM 42.2482 -87.1221 66° East  Level FlightAware Approximate
Thu 01:09:50 PM 42.0664 -87.4347 52° Northeast 285 328 10,100  Level Chicago Center
Thu 01:10:00 PM 42.2755 -86.9803 77° East  Level FlightAware Approximate
Thu 01:10:52 PM 42.1164 -87.3475 52° Northeast 293 337 11,700  Level Chicago Center
Thu 01:11:54 PM 42.1794 -87.2381 52° Northeast 310 357 13,300 1,296 Climbing Chicago Center
Thu 01:12:57 PM 42.2206 -87.1294 63° Northeast 328 377 14,400 1,104 Climbing Chicago Center
Thu 01:13:59 PM 42.2275 -86.9967 86° East 353 406 15,600 1,065 Climbing Chicago Center
Thu 01:15:01 PM 42.2331 -86.8614 87° East 359 413 16,600 1,016 Climbing Chicago Center
Thu 01:16:03 PM 42.2389 -86.7247 87° East 365 420 17,700 968 Climbing Chicago Center
Thu 01:17:05 PM 42.2450 -86.5756 87° East 372 428 18,600 968 Climbing Chicago Center
Thu 01:18:07 PM 42.2514 -86.4356 86° East 374 430 19,700 1,065 Climbing Chicago Center
Thu 01:19:09 PM 42.2569 -86.2939 87° East 377 434 20,800 1,113 Climbing Chicago Center
Thu 01:20:11 PM 42.2633 -86.1200 87° East 385 443 22,000 1,113 Climbing Chicago Center
Thu 01:21:13 PM 42.2692 -85.9742 87° East 388 447 23,100 1,016 Climbing Chicago Center
Thu 01:22:15 PM 42.2733 -85.8417 88° East 388 447 24,100 960 Climbing Chicago Center
Thu 01:23:18 PM 42.2789 -85.6953 87° East 391 450 25,100 1,104 Climbing Chicago Center
Thu 01:24:20 PM 42.2847 -85.5178 87° East 397 457 26,400 1,113 Climbing Chicago Center
Thu 01:25:22 PM 42.2906 -85.3689 87° East 399 459 27,400 1,016 Climbing Chicago Center
Thu 01:26:24 PM 42.2939 -85.2217 88° East 396 456 28,500 1,016 Climbing Chicago Center
Thu 01:27:26 PM 42.2994 -85.0747 87° East 395 455 29,500 1,016 Climbing Chicago Center
Thu 01:28:28 PM 42.2981 -84.9244 91° East 400 460 30,600 1,113 Climbing Chicago Center
Thu 01:29:30 PM 42.3100 -84.7486 85° East 390 449 31,800 1,113 Climbing Chicago Center
Thu 01:30:32 PM 42.3414 -84.6111 73° East 386 444 32,900 1,016 Climbing Chicago Center
Thu 01:31:34 PM 42.3708 -84.4711 74° East 388 447 33,900 1,017 Climbing Chicago Center
Thu 01:32:30 PM 42.3964 -84.3481 74° East 386 444 34,900 569 Climbing Cleveland Center
Thu 01:33:30 PM 42.4281 -84.2067 73° East 386 444 35,000 50 Climbing Cleveland Center
Thu 01:34:30 PM 42.4600 -84.0564 74° East 392 451 35,000  Level Cleveland Center
Thu 01:35:30 PM 42.4936 -83.9006 74° East 413 475 35,000  Level Cleveland Center
Thu 01:36:30 PM 42.5275 -83.7389 74° East 426 490 35,000  Level Cleveland Center
Thu 01:37:30 PM 42.5631 -83.5772 73° East 439 505 35,000  Level Cleveland Center
Thu 01:38:30 PM 42.5964 -83.4122 75° East 444 511 35,000  Level Cleveland Center
Thu 01:39:30 PM 42.6294 -83.2472 75° East 449 517 35,000  Level Cleveland Center
Thu 01:40:30 PM 42.6669 -83.0681 74° East 449 517 35,000  Level Cleveland Center
Thu 01:41:30 PM 42.6994 -82.9028 75° East 449 517 35,000  Level Cleveland Center
Thu 01:42:30 PM 42.7319 -82.7342 75° East 449 517 35,000  Level Cleveland Center
Thu 01:43:30 PM 42.7661 -82.5658 74° East 449 517 35,000  Level Cleveland Center
Thu 01:44:30 PM 42.7981 -82.3942 76° East 449 517 35,000  Level Cleveland Center
Thu 01:45:30 PM 42.8319 -82.2281 74° East 449 517 35,000  Level Cleveland Center
Thu 01:46:30 PM 42.8656 -82.0533 75° East 454 522 35,000  Level Cleveland Center
Thu 01:48:06 PM 42.9167 -81.7667 76° East 470 541 35,000  Level Toronto Center
Thu 01:49:06 PM 42.9333 -81.5833 83° East 460 529 35,000  Level Toronto Center
Thu 01:50:06 PM 42.9667 -81.4333 73° East 460 529 35,000  Level Toronto Center
Thu 01:51:06 PM 43.0000 -81.2667 75° East 460 529 35,000  Level Toronto Center
Thu 01:52:06 PM 43.0333 -81.1000 75° East 460 529 35,000  Level Toronto Center
Thu 01:53:06 PM 43.1000 -80.9500 59° Northeast 450 518 35,000  Level Toronto Center
Thu 01:54:06 PM 43.1667 -80.8000 59° Northeast 440 506 35,000  Level Toronto Center
Thu 01:55:06 PM 43.2333 -80.6667 56° Northeast 440 506 35,000  Level Toronto Center
Thu 01:56:06 PM 43.2833 -80.5000 68° East 440 506 35,000  Level Toronto Center
Thu 01:57:06 PM 43.3500 -80.3667 55° Northeast 440 506 35,000  Level Toronto Center
Thu 01:58:06 PM 43.4000 -80.2333 63° Northeast 440 506 35,000  Level Toronto Center
Thu 01:59:06 PM 43.4667 -80.0667 61° Northeast 440 506 35,000  Level Toronto Center
Thu 02:00:06 PM 43.5167 -79.9333 63° Northeast 440 506 35,000  Level Toronto Center
Thu 02:01:06 PM 43.5833 -79.7667 61° Northeast 440 506 35,000  Level Toronto Center
Thu 02:02:06 PM 43.6500 -79.6333 55° Northeast 460 529 35,000  Level Toronto Center
Thu 02:03:06 PM 43.7000 -79.4500 69° East 470 541 35,000  Level Toronto Center
Thu 02:04:06 PM 43.7500 -79.2833 67° East 450 518 35,000  Level Toronto Center
Thu 02:05:06 PM 43.7833 -79.1500 71° East 450 518 35,000  Level Toronto Center
Thu 02:06:06 PM 43.8333 -78.9667 69° East 450 518 35,000  Level Toronto Center
Thu 02:07:06 PM 43.8833 -78.8000 67° East 450 518 35,000  Level Toronto Center
Thu 02:08:06 PM 43.9333 -78.6333 67° East 450 518 35,000  Level Toronto Center
Thu 02:09:06 PM 43.9667 -78.4667 74° East 450 518 35,000  Level Toronto Center
Thu 02:10:06 PM 44.0167 -78.3333 62° Northeast 450 518 35,000  Level Toronto Center
Thu 02:11:06 PM 44.0833 -78.1667 61° Northeast 450 518 35,000  Level Toronto Center
Thu 02:12:06 PM 44.1333 -78.0333 62° Northeast 430 495 35,000  Level Toronto Center
Thu 02:13:06 PM 44.2000 -77.8833 58° Northeast 430 495 35,000  Level Toronto Center
Thu 02:14:06 PM 44.2667 -77.7500 55° Northeast 430 495 35,000 -200 Level Toronto Center
Thu 02:15:06 PM 44.3333 -77.6000 58° Northeast 430 495 34,600 -1,100 Descending Toronto Center
Thu 02:16:06 PM 44.4000 -77.4667 55° Northeast 430 495 32,800 -1,795 Descending Toronto Center
Thu 02:17:03 PM 44.4667 -77.3500 51° Northeast 430 495 31,100 -2,000 Descending Montreal Center
Thu 02:18:03 PM 44.5167 -77.2167 62° Northeast 430 495 28,900 -2,500 Descending Montreal Center
Thu 02:19:03 PM 44.5833 -77.0667 58° Northeast 420 483 26,100 -3,200 Descending Montreal Center
Thu 02:20:03 PM 44.6500 -76.9333 55° Northeast 410 472 22,500 -3,350 Descending Montreal Center
Thu 02:21:03 PM 44.7000 -76.8167 59° Northeast 400 460 19,400 -2,750 Descending Montreal Center
Thu 02:22:03 PM 44.7667 -76.7000 51° Northeast 380 437 17,000 -2,400 Descending Montreal Center
Thu 02:23:03 PM 44.8333 -76.5833 51° Northeast 370 426 14,600 -2,150 Descending Montreal Center
Thu 02:24:03 PM 44.8833 -76.4667 59° Northeast 360 414 12,700 -1,300 Descending Montreal Center
Thu 02:25:03 PM 44.9500 -76.3500 51° Northeast 350 403 12,000 -350 Descending Montreal Center
Thu 02:26:03 PM 45.0000 -76.2500 55° Northeast 350 403 12,000 -900 Level Montreal Center
Thu 02:27:03 PM 45.0500 -76.1500 55° Northeast 300 345 10,200 -1,900 Descending Montreal Center
Thu 02:28:03 PM 45.1000 -76.0667 50° Northeast 270 311 8,200 -2,100 Descending Montreal Center
Thu 02:29:03 PM 45.1500 -76.0000 43° Northeast 240 276 6,000 -2,000 Descending Montreal Center
Thu 02:30:03 PM 45.1833 -75.9167 60° Northeast 230 265 4,200 -1,400 Descending Montreal Center
Thu 02:31:03 PM 45.2167 -75.8500 55° Northeast 210 242 3,200 -1,050 Descending Montreal Center
Thu 02:32:03 PM 45.2500 -75.7833 55° Northeast 210 242 2,100 -1,050 Descending Montreal Center
Thu 02:33:03 PM 45.2667 -75.7000 74° East 180 207 1,100 -850 Descending Montreal Center
Thu 02:34:03 PM 45.3000 -75.6667 35° Northeast 140 161 400 -700 Descending Montreal Center

Login

Don't have an account? Register now (free) for customized features, flight alerts, and more!